Wilson, Idaho
Current Conditions -  °F | °C
As of 12:15 PM on Saturday 20 Dec 2014 (Local Time) from KMAN Reporting Station
Broken Clouds Broken Clouds  
Wind Chill: 39°   Ceiling: 5500
Heat Index: 45°   Visibility: 10mi
Dew Point: 45°   Wind: 10mph
Humidity: 100%   Direction: 140°SE
Pressure: 29.97"   Gusts: 18mph
Location:  43.3697°N, 116.52°W
Report Text: KMAN 201915Z AUTO 14009G16KT 10SM BKN055 07/07 A2997 RMK AO1
Loading
Personal Weather Stations






























Interactive Weather Map New forecast layout! Learn more

10-Day Weather Forecast

Advertisements
Track Severe Weather on mobile